Lr2 Pioneer — VREE7 — position and weather

sailwx.info

Track history (hours):
 
Tides and Currents Weather Stations Pressure Air Temp Water Temp Dewpoint Dewpoint Depression Visibility Wind Speed Wind Dir Waves Ship Positions

Lr2 Pioneer

Last reported at 2016-Jun-23 02:18 UTC. Time now 2016-Jun-27 15:04 UTC.
Position N 01°60' E 102°13'.

Length 244 m; draft 15 m.

Type: Ship (hazmat cat A). MMSI: 477114400.

Date/timePositionNaut miles runAvg speedWind from/ knotsBaromVisibWave heightAir tempDewpointWater temp
2016-Jun-23 02:18N 01°60' E 102°13'810.1
2016-Jun-23 01:32N 01°56' E 102°20'1010.0
2016-Jun-23 00:33N 01°52' E 102°28'1110.6
2016-Jun-22 23:33N 01°47' E 102°38'1211.5
2016-Jun-22 22:30N 01°42' E 102°49'5610.3
2016-Jun-22 17:03N 01°11' E 103°36'4 7.1
2016-Jun-22 16:31N 01°11' E 103°40'6 6.1
2016-Jun-22 15:33N 01°09' E 103°46'8 8.5
2016-Jun-22 14:33N 01°13' E 103°53'2 2.4
2016-Jun-22 13:33N 01°15' E 103°55'0 0.0
2016-Jun-22 12:30N 01°15' E 103°55'0 0.0
2016-Jun-22 11:30N 01°15' E 103°55'0 0.0
2016-Jun-22 10:21N 01°15' E 103°55'0 0.0
2016-Jun-22 09:30N 01°15' E 103°55'0 0.2
2016-Jun-22 08:24N 01°15' E 103°55'0 0.1
2016-Jun-22 07:30N 01°15' E 103°55'0 0.1
2016-Jun-22 06:21N 01°15' E 103°55'0 0.1
2016-Jun-22 05:33N 01°15' E 103°55'0 0.0
2016-Jun-22 04:24N 01°15' E 103°55'0 0.1
2016-Jun-22 03:33N 01°15' E 103°55'0 0.0
2016-Jun-22 02:30N 01°15' E 103°55'0 0.0
2016-Jun-22 01:33N 01°15' E 103°55'0 0.1
2016-Jun-22 00:33N 01°15' E 103°55'0 0.0
2016-Jun-21 23:30N 01°15' E 103°55'0 0.2
2016-Jun-21 22:24N 01°15' E 103°55'0 0.2
2016-Jun-21 21:33N 01°15' E 103°55'0 0.1
2016-Jun-21 20:30N 01°15' E 103°55'0 0.1
2016-Jun-21 19:24N 01°15' E 103°55'0 0.0
2016-Jun-21 18:30N 01°15' E 103°55'0 0.0
2016-Jun-21 17:30N 01°15' E 103°55'0 0.0
2016-Jun-21 16:30N 01°15' E 103°55'0 0.3
2016-Jun-21 15:33N 01°15' E 103°55'0 0.1
2016-Jun-21 14:30N 01°15' E 103°55'0 0.0
2016-Jun-21 13:30N 01°15' E 103°55'0 0.0
2016-Jun-21 12:30N 01°15' E 103°55'0 0.1
2016-Jun-21 11:30N 01°15' E 103°55'0 0.1
2016-Jun-21 10:33N 01°15' E 103°55'0 0.0
2016-Jun-21 09:30N 01°15' E 103°55'0 0.2
2016-Jun-21 08:33N 01°15' E 103°55'0 0.1
2016-Jun-21 07:33N 01°15' E 103°55'0 0.0
2016-Jun-21 04:27N 01°15' E 103°55'0 0.1
2016-Jun-21 03:27N 01°15' E 103°55'0 0.0
2016-Jun-21 02:24N 01°15' E 103°55'0 0.4
2016-Jun-21 01:24N 01°15' E 103°55'0 0.1
2016-Jun-21 00:30N 01°15' E 103°55'0 0.1
2016-Jun-20 23:30N 01°15' E 103°55'0 0.1
2016-Jun-20 22:27N 01°15' E 103°55'0 0.0
2016-Jun-20 21:30N 01°15' E 103°55'0 0.0
2016-Jun-20 20:33N 01°15' E 103°55'1 0.7
2016-Jun-20 19:33N 01°15' E 103°55'1 0.6
2016-Jun-20 18:19N 01°15' E 103°55'0 0.1
2016-Jun-20 17:31N 01°15' E 103°55'0 0.0
2016-Jun-20 16:31N 01°15' E 103°55'0 0.2
2016-Jun-20 15:25N 01°15' E 103°55'0 0.1
2016-Jun-20 14:25N 01°15' E 103°55'0 0.0
2016-Jun-20 13:31N 01°15' E 103°55'0 0.0
2016-Jun-20 12:31N 01°15' E 103°55'0 0.0
2016-Jun-20 11:31N 01°15' E 103°55'0 0.1
2016-Jun-20 10:31N 01°15' E 103°55'0 0.2
2016-Jun-20 09:31N 01°15' E 103°55'0 0.0
2016-Jun-20 08:19N 01°15' E 103°55'0 0.1
2016-Jun-20 07:19N 01°15' E 103°55'0 0.0
2016-Jun-20 06:31N 01°15' E 103°55'0 0.0
2016-Jun-20 05:25N 01°15' E 103°55'0 0.1
2016-Jun-20 04:19N 01°15' E 103°55'0 0.1
2016-Jun-20 03:33N 01°15' E 103°55'4 3.8
2016-Jun-20 02:33N 01°16' E 103°59'4 4.1
2016-Jun-20 01:32N 01°16' E 104°03'  
Track history (hours):
 
Tides and Currents Weather Stations Pressure Air Temp Water Temp Dewpoint Dewpoint Depression Visibility Wind Speed Wind Dir Waves Ship Positions

Lr2 Pioneer

Last reported at 2016-Jun-23 02:18 UTC. Time now 2016-Jun-27 15:04 UTC.
Position N 01°60' E 102°13'.

Length 244 m; draft 15 m.

Type: Ship (hazmat cat A). MMSI: 477114400.

Date/timePositionNaut miles runAvg speedWind from/ knotsBaromVisibWave heightAir tempDewpointWater temp
2016-Jun-23 02:18N 01°60' E 102°13'810.1
2016-Jun-23 01:32N 01°56' E 102°20'1010.0
2016-Jun-23 00:33N 01°52' E 102°28'1110.6
2016-Jun-22 23:33N 01°47' E 102°38'1211.5
2016-Jun-22 22:30N 01°42' E 102°49'5610.3
2016-Jun-22 17:03N 01°11' E 103°36'4 7.1
2016-Jun-22 16:31N 01°11' E 103°40'6 6.1
2016-Jun-22 15:33N 01°09' E 103°46'8 8.5
2016-Jun-22 14:33N 01°13' E 103°53'2 2.4
2016-Jun-22 13:33N 01°15' E 103°55'0 0.0
2016-Jun-22 12:30N 01°15' E 103°55'0 0.0
2016-Jun-22 11:30N 01°15' E 103°55'0 0.0
2016-Jun-22 10:21N 01°15' E 103°55'0 0.0
2016-Jun-22 09:30N 01°15' E 103°55'0 0.2
2016-Jun-22 08:24N 01°15' E 103°55'0 0.1
2016-Jun-22 07:30N 01°15' E 103°55'0 0.1
2016-Jun-22 06:21N 01°15' E 103°55'0 0.1
2016-Jun-22 05:33N 01°15' E 103°55'0 0.0
2016-Jun-22 04:24N 01°15' E 103°55'0 0.1
2016-Jun-22 03:33N 01°15' E 103°55'0 0.0
2016-Jun-22 02:30N 01°15' E 103°55'0 0.0
2016-Jun-22 01:33N 01°15' E 103°55'0 0.1
2016-Jun-22 00:33N 01°15' E 103°55'0 0.0
2016-Jun-21 23:30N 01°15' E 103°55'0 0.2
2016-Jun-21 22:24N 01°15' E 103°55'0 0.2
2016-Jun-21 21:33N 01°15' E 103°55'0 0.1
2016-Jun-21 20:30N 01°15' E 103°55'0 0.1
2016-Jun-21 19:24N 01°15' E 103°55'0 0.0
2016-Jun-21 18:30N 01°15' E 103°55'0 0.0
2016-Jun-21 17:30N 01°15' E 103°55'0 0.0
2016-Jun-21 16:30N 01°15' E 103°55'0 0.3
2016-Jun-21 15:33N 01°15' E 103°55'0 0.1
2016-Jun-21 14:30N 01°15' E 103°55'0 0.0
2016-Jun-21 13:30N 01°15' E 103°55'0 0.0
2016-Jun-21 12:30N 01°15' E 103°55'0 0.1
2016-Jun-21 11:30N 01°15' E 103°55'0 0.1
2016-Jun-21 10:33N 01°15' E 103°55'0 0.0
2016-Jun-21 09:30N 01°15' E 103°55'0 0.2
2016-Jun-21 08:33N 01°15' E 103°55'0 0.1
2016-Jun-21 07:33N 01°15' E 103°55'0 0.0
2016-Jun-21 04:27N 01°15' E 103°55'0 0.1
2016-Jun-21 03:27N 01°15' E 103°55'0 0.0
2016-Jun-21 02:24N 01°15' E 103°55'0 0.4
2016-Jun-21 01:24N 01°15' E 103°55'0 0.1
2016-Jun-21 00:30N 01°15' E 103°55'0 0.1
2016-Jun-20 23:30N 01°15' E 103°55'0 0.1
2016-Jun-20 22:27N 01°15' E 103°55'0 0.0
2016-Jun-20 21:30N 01°15' E 103°55'0 0.0
2016-Jun-20 20:33N 01°15' E 103°55'1 0.7
2016-Jun-20 19:33N 01°15' E 103°55'1 0.6
2016-Jun-20 18:19N 01°15' E 103°55'0 0.1
2016-Jun-20 17:31N 01°15' E 103°55'0 0.0
2016-Jun-20 16:31N 01°15' E 103°55'0 0.2
2016-Jun-20 15:25N 01°15' E 103°55'0 0.1
2016-Jun-20 14:25N 01°15' E 103°55'0 0.0
2016-Jun-20 13:31N 01°15' E 103°55'0 0.0
2016-Jun-20 12:31N 01°15' E 103°55'0 0.0
2016-Jun-20 11:31N 01°15' E 103°55'0 0.1
2016-Jun-20 10:31N 01°15' E 103°55'0 0.2
2016-Jun-20 09:31N 01°15' E 103°55'0 0.0
2016-Jun-20 08:19N 01°15' E 103°55'0 0.1
2016-Jun-20 07:19N 01°15' E 103°55'0 0.0
2016-Jun-20 06:31N 01°15' E 103°55'0 0.0
2016-Jun-20 05:25N 01°15' E 103°55'0 0.1
2016-Jun-20 04:19N 01°15' E 103°55'0 0.1
2016-Jun-20 03:33N 01°15' E 103°55'4 3.8
2016-Jun-20 02:33N 01°16' E 103°59'4 4.1
2016-Jun-20 01:32N 01°16' E 104°03'  

Dump ship's entire track history